sensor_id;sensor_type;location;lat;lon;timestamp;P1;durP1;ratioP1;P2;durP2;ratioP2
9461;SDS011;4769;42.660;23.262;2023-07-24T00:01:18;10.52;;;9.40;;
9461;SDS011;4769;42.660;23.262;2023-07-24T00:03:46;12.57;;;9.52;;
9461;SDS011;4769;42.660;23.262;2023-07-24T00:06:12;12.77;;;9.90;;
9461;SDS011;4769;42.660;23.262;2023-07-24T00:08:38;11.93;;;9.52;;
9461;SDS011;4769;42.660;23.262;2023-07-24T00:11:06;11.43;;;9.48;;
9461;SDS011;4769;42.660;23.262;2023-07-24T00:13:32;11.55;;;9.65;;
9461;SDS011;4769;42.660;23.262;2023-07-24T00:15:58;12.00;;;9.77;;
9461;SDS011;4769;42.660;23.262;2023-07-24T00:18:23;12.20;;;8.80;;
9461;SDS011;4769;42.660;23.262;2023-07-24T00:20:52;12.40;;;10.02;;
9461;SDS011;4769;42.660;23.262;2023-07-24T00:23:17;14.30;;;10.18;;
9461;SDS011;4769;42.660;23.262;2023-07-24T00:25:43;12.38;;;10.52;;
9461;SDS011;4769;42.660;23.262;2023-07-24T00:28:09;11.90;;;9.70;;
9461;SDS011;4769;42.660;23.262;2023-07-24T00:30:34;12.45;;;11.00;;
9461;SDS011;4769;42.660;23.262;2023-07-24T00:33:00;14.48;;;11.18;;
9461;SDS011;4769;42.660;23.262;2023-07-24T00:35:25;13.07;;;10.80;;
9461;SDS011;4769;42.660;23.262;2023-07-24T00:37:54;12.52;;;10.82;;
9461;SDS011;4769;42.660;23.262;2023-07-24T00:40:19;16.02;;;10.98;;
9461;SDS011;4769;42.660;23.262;2023-07-24T00:42:46;11.73;;;10.30;;
9461;SDS011;4769;42.660;23.262;2023-07-24T00:45:12;12.82;;;10.73;;
9461;SDS011;4769;42.660;23.262;2023-07-24T00:47:38;14.60;;;10.85;;
9461;SDS011;4769;42.660;23.262;2023-07-24T00:50:04;12.32;;;10.65;;
9461;SDS011;4769;42.660;23.262;2023-07-24T00:52:31;13.23;;;10.48;;
9461;SDS011;4769;42.660;23.262;2023-07-24T00:54:59;12.75;;;11.00;;
9461;SDS011;4769;42.660;23.262;2023-07-24T00:57:25;12.23;;;10.63;;
9461;SDS011;4769;42.660;23.262;2023-07-24T00:59:51;12.43;;;10.70;;
9461;SDS011;4769;42.660;23.262;2023-07-24T01:02:17;12.43;;;10.50;;
9461;SDS011;4769;42.660;23.262;2023-07-24T01:04:43;12.82;;;10.38;;
9461;SDS011;4769;42.660;23.262;2023-07-24T01:07:09;12.50;;;10.52;;
9461;SDS011;4769;42.660;23.262;2023-07-24T01:09:35;19.33;;;11.50;;
9461;SDS011;4769;42.660;23.262;2023-07-24T01:12:05;13.57;;;10.43;;
9461;SDS011;4769;42.660;23.262;2023-07-24T01:14:46;13.63;;;11.43;;
9461;SDS011;4769;42.660;23.262;2023-07-24T01:17:15;12.95;;;10.80;;
9461;SDS011;4769;42.660;23.262;2023-07-24T01:19:46;13.68;;;11.00;;
9461;SDS011;4769;42.660;23.262;2023-07-24T01:22:14;12.50;;;10.40;;
9461;SDS011;4769;42.660;23.262;2023-07-24T01:24:55;12.45;;;10.32;;
9461;SDS011;4769;42.660;23.262;2023-07-24T01:27:31;13.35;;;10.27;;
9461;SDS011;4769;42.660;23.262;2023-07-24T01:29:57;12.35;;;10.98;;
9461;SDS011;4769;42.660;23.262;2023-07-24T01:32:23;14.20;;;10.68;;
9461;SDS011;4769;42.660;23.262;2023-07-24T01:34:49;13.32;;;10.38;;
9461;SDS011;4769;42.660;23.262;2023-07-24T01:37:15;13.75;;;10.20;;
9461;SDS011;4769;42.660;23.262;2023-07-24T01:39:42;13.52;;;10.88;;
9461;SDS011;4769;42.660;23.262;2023-07-24T01:42:09;14.00;;;10.57;;
9461;SDS011;4769;42.660;23.262;2023-07-24T01:44:38;13.20;;;11.23;;
9461;SDS011;4769;42.660;23.262;2023-07-24T01:47:03;13.52;;;10.48;;
9461;SDS011;4769;42.660;23.262;2023-07-24T01:49:29;14.50;;;11.13;;
9461;SDS011;4769;42.660;23.262;2023-07-24T01:51:55;13.20;;;11.55;;
9461;SDS011;4769;42.660;23.262;2023-07-24T01:54:21;14.02;;;11.27;;
9461;SDS011;4769;42.660;23.262;2023-07-24T01:56:46;13.52;;;10.98;;
9461;SDS011;4769;42.660;23.262;2023-07-24T01:59:12;13.85;;;10.70;;
9461;SDS011;4769;42.660;23.262;2023-07-24T02:01:40;14.40;;;10.88;;
9461;SDS011;4769;42.660;23.262;2023-07-24T02:04:06;13.25;;;10.50;;
9461;SDS011;4769;42.660;23.262;2023-07-24T02:06:31;14.43;;;11.88;;
9461;SDS011;4769;42.660;23.262;2023-07-24T02:08:57;13.23;;;11.32;;
9461;SDS011;4769;42.660;23.262;2023-07-24T02:11:23;14.82;;;11.10;;
9461;SDS011;4769;42.660;23.262;2023-07-24T02:13:48;14.88;;;11.27;;
9461;SDS011;4769;42.660;23.262;2023-07-24T02:16:14;13.93;;;11.27;;
9461;SDS011;4769;42.660;23.262;2023-07-24T02:18:42;15.73;;;11.50;;
9461;SDS011;4769;42.660;23.262;2023-07-24T02:21:08;13.77;;;11.43;;
9461;SDS011;4769;42.660;23.262;2023-07-24T02:23:34;14.93;;;11.23;;
9461;SDS011;4769;42.660;23.262;2023-07-24T02:26:00;13.77;;;11.07;;
9461;SDS011;4769;42.660;23.262;2023-07-24T02:28:26;15.93;;;11.55;;
9461;SDS011;4769;42.660;23.262;2023-07-24T02:30:52;16.38;;;12.50;;
9461;SDS011;4769;42.660;23.262;2023-07-24T02:33:17;15.48;;;11.75;;
9461;SDS011;4769;42.660;23.262;2023-07-24T02:35:46;15.30;;;11.95;;
9461;SDS011;4769;42.660;23.262;2023-07-24T02:38:11;13.48;;;11.30;;
9461;SDS011;4769;42.660;23.262;2023-07-24T02:40:37;14.93;;;12.20;;
9461;SDS011;4769;42.660;23.262;2023-07-24T02:43:06;16.63;;;12.20;;
9461;SDS011;4769;42.660;23.262;2023-07-24T02:45:33;15.05;;;11.93;;
9461;SDS011;4769;42.660;23.262;2023-07-24T02:47:59;15.52;;;12.43;;
9461;SDS011;4769;42.660;23.262;2023-07-24T02:50:25;14.75;;;11.07;;
9461;SDS011;4769;42.660;23.262;2023-07-24T02:52:53;14.93;;;12.10;;
9461;SDS011;4769;42.660;23.262;2023-07-24T02:55:19;15.30;;;11.43;;
9461;SDS011;4769;42.660;23.262;2023-07-24T02:57:44;15.35;;;11.68;;
9461;SDS011;4769;42.660;23.262;2023-07-24T03:00:10;15.90;;;11.63;;
9461;SDS011;4769;42.660;23.262;2023-07-24T03:02:37;14.55;;;11.27;;
9461;SDS011;4769;42.660;23.262;2023-07-24T03:05:03;14.90;;;11.35;;
9461;SDS011;4769;42.660;23.262;2023-07-24T03:07:29;17.05;;;11.93;;
9461;SDS011;4769;42.660;23.262;2023-07-24T03:09:57;14.23;;;11.95;;
9461;SDS011;4769;42.660;23.262;2023-07-24T03:12:23;16.70;;;12.38;;
9461;SDS011;4769;42.660;23.262;2023-07-24T03:14:49;16.95;;;11.85;;
9461;SDS011;4769;42.660;23.262;2023-07-24T03:17:14;16.25;;;12.13;;
9461;SDS011;4769;42.660;23.262;2023-07-24T03:19:40;14.80;;;11.88;;
9461;SDS011;4769;42.660;23.262;2023-07-24T03:22:07;14.90;;;12.10;;
9461;SDS011;4769;42.660;23.262;2023-07-24T03:24:32;14.57;;;12.07;;
9461;SDS011;4769;42.660;23.262;2023-07-24T03:27:01;17.70;;;12.60;;
9461;SDS011;4769;42.660;23.262;2023-07-24T03:29:27;20.15;;;12.52;;
9461;SDS011;4769;42.660;23.262;2023-07-24T03:31:52;15.05;;;12.30;;
9461;SDS011;4769;42.660;23.262;2023-07-24T03:34:18;14.60;;;12.00;;
9461;SDS011;4769;42.660;23.262;2023-07-24T03:36:44;14.05;;;12.10;;
9461;SDS011;4769;42.660;23.262;2023-07-24T03:39:10;16.38;;;11.77;;
9461;SDS011;4769;42.660;23.262;2023-07-24T03:41:36;15.82;;;11.77;;
9461;SDS011;4769;42.660;23.262;2023-07-24T03:44:04;17.50;;;11.60;;
9461;SDS011;4769;42.660;23.262;2023-07-24T03:46:31;16.15;;;12.63;;
9461;SDS011;4769;42.660;23.262;2023-07-24T03:48:57;16.02;;;12.55;;
9461;SDS011;4769;42.660;23.262;2023-07-24T03:51:23;17.90;;;13.00;;
9461;SDS011;4769;42.660;23.262;2023-07-24T03:53:48;18.92;;;13.25;;
9461;SDS011;4769;42.660;23.262;2023-07-24T03:56:14;24.98;;;15.40;;
9461;SDS011;4769;42.660;23.262;2023-07-24T03:58:40;18.58;;;14.05;;
9461;SDS011;4769;42.660;23.262;2023-07-24T04:01:08;21.48;;;14.88;;
9461;SDS011;4769;42.660;23.262;2023-07-24T04:03:34;21.85;;;13.88;;
9461;SDS011;4769;42.660;23.262;2023-07-24T04:06:00;20.60;;;14.82;;
9461;SDS011;4769;42.660;23.262;2023-07-24T04:08:26;20.05;;;13.80;;
9461;SDS011;4769;42.660;23.262;2023-07-24T04:10:51;19.70;;;13.70;;
9461;SDS011;4769;42.660;23.262;2023-07-24T04:13:17;17.70;;;13.48;;
9461;SDS011;4769;42.660;23.262;2023-07-24T04:15:43;18.55;;;13.90;;
9461;SDS011;4769;42.660;23.262;2023-07-24T04:18:11;19.88;;;13.82;;
9461;SDS011;4769;42.660;23.262;2023-07-24T04:20:37;15.90;;;12.90;;
9461;SDS011;4769;42.660;23.262;2023-07-24T04:23:02;18.00;;;13.43;;
9461;SDS011;4769;42.660;23.262;2023-07-24T04:25:28;18.40;;;13.82;;
9461;SDS011;4769;42.660;23.262;2023-07-24T04:27:54;16.05;;;12.68;;
9461;SDS011;4769;42.660;23.262;2023-07-24T04:30:20;18.75;;;13.80;;
9461;SDS011;4769;42.660;23.262;2023-07-24T04:32:46;15.88;;;12.35;;
9461;SDS011;4769;42.660;23.262;2023-07-24T04:35:14;18.52;;;12.82;;
9461;SDS011;4769;42.660;23.262;2023-07-24T04:37:40;15.93;;;13.68;;
9461;SDS011;4769;42.660;23.262;2023-07-24T04:40:06;16.65;;;12.63;;
9461;SDS011;4769;42.660;23.262;2023-07-24T04:42:32;17.83;;;12.93;;
9461;SDS011;4769;42.660;23.262;2023-07-24T04:44:58;18.95;;;13.07;;
9461;SDS011;4769;42.660;23.262;2023-07-24T04:47:24;15.60;;;12.68;;
9461;SDS011;4769;42.660;23.262;2023-07-24T04:49:49;14.98;;;12.05;;
9461;SDS011;4769;42.660;23.262;2023-07-24T04:52:18;16.02;;;12.05;;
9461;SDS011;4769;42.660;23.262;2023-07-24T04:54:44;15.93;;;12.35;;
9461;SDS011;4769;42.660;23.262;2023-07-24T04:57:09;18.67;;;12.93;;
9461;SDS011;4769;42.660;23.262;2023-07-24T04:59:35;17.50;;;13.18;;
9461;SDS011;4769;42.660;23.262;2023-07-24T05:02:01;20.95;;;13.18;;
9461;SDS011;4769;42.660;23.262;2023-07-24T05:04:27;18.70;;;12.95;;
9461;SDS011;4769;42.660;23.262;2023-07-24T05:06:52;17.02;;;13.60;;
9461;SDS011;4769;42.660;23.262;2023-07-24T05:09:21;17.80;;;13.10;;
9461;SDS011;4769;42.660;23.262;2023-07-24T05:11:46;20.35;;;14.18;;
9461;SDS011;4769;42.660;23.262;2023-07-24T05:14:12;18.60;;;13.32;;
9461;SDS011;4769;42.660;23.262;2023-07-24T05:16:38;19.50;;;13.63;;
9461;SDS011;4769;42.660;23.262;2023-07-24T05:19:03;21.83;;;14.10;;
9461;SDS011;4769;42.660;23.262;2023-07-24T05:21:29;21.35;;;14.82;;
9461;SDS011;4769;42.660;23.262;2023-07-24T05:23:55;17.95;;;13.60;;
9461;SDS011;4769;42.660;23.262;2023-07-24T05:26:23;23.00;;;14.68;;
9461;SDS011;4769;42.660;23.262;2023-07-24T05:28:48;18.55;;;14.00;;
9461;SDS011;4769;42.660;23.262;2023-07-24T05:31:14;18.50;;;12.95;;
9461;SDS011;4769;42.660;23.262;2023-07-24T05:33:40;22.92;;;13.27;;
9461;SDS011;4769;42.660;23.262;2023-07-24T05:36:05;17.08;;;13.13;;
9461;SDS011;4769;42.660;23.262;2023-07-24T05:38:31;13.82;;;11.95;;
9461;SDS011;4769;42.660;23.262;2023-07-24T05:40:57;18.17;;;12.25;;
9461;SDS011;4769;42.660;23.262;2023-07-24T05:43:26;18.13;;;12.93;;
9461;SDS011;4769;42.660;23.262;2023-07-24T05:45:52;23.90;;;13.95;;
9461;SDS011;4769;42.660;23.262;2023-07-24T05:48:19;18.92;;;12.90;;
9461;SDS011;4769;42.660;23.262;2023-07-24T05:50:45;15.70;;;11.63;;
9461;SDS011;4769;42.660;23.262;2023-07-24T05:53:10;17.58;;;12.57;;
9461;SDS011;4769;42.660;23.262;2023-07-24T05:55:36;18.80;;;12.55;;
9461;SDS011;4769;42.660;23.262;2023-07-24T05:58:02;14.20;;;11.55;;
9461;SDS011;4769;42.660;23.262;2023-07-24T06:00:30;17.08;;;11.88;;
9461;SDS011;4769;42.660;23.262;2023-07-24T06:02:56;15.32;;;11.75;;
9461;SDS011;4769;42.660;23.262;2023-07-24T06:05:22;14.93;;;11.93;;
9461;SDS011;4769;42.660;23.262;2023-07-24T06:07:47;14.93;;;11.82;;
9461;SDS011;4769;42.660;23.262;2023-07-24T06:10:13;15.30;;;12.43;;
9461;SDS011;4769;42.660;23.262;2023-07-24T06:12:39;14.30;;;11.65;;
9461;SDS011;4769;42.660;23.262;2023-07-24T06:15:05;14.98;;;13.05;;
9461;SDS011;4769;42.660;23.262;2023-07-24T06:17:34;16.88;;;13.35;;
9461;SDS011;4769;42.660;23.262;2023-07-24T06:20:00;15.77;;;12.18;;
9461;SDS011;4769;42.660;23.262;2023-07-24T06:22:26;18.23;;;12.80;;
9461;SDS011;4769;42.660;23.262;2023-07-24T06:24:51;15.40;;;12.68;;
9461;SDS011;4769;42.660;23.262;2023-07-24T06:27:17;17.48;;;12.27;;
9461;SDS011;4769;42.660;23.262;2023-07-24T06:29:42;14.43;;;11.70;;
9461;SDS011;4769;42.660;23.262;2023-07-24T06:32:08;17.65;;;13.25;;
9461;SDS011;4769;42.660;23.262;2023-07-24T06:34:36;15.20;;;12.63;;
9461;SDS011;4769;42.660;23.262;2023-07-24T06:37:02;16.20;;;12.82;;
9461;SDS011;4769;42.660;23.262;2023-07-24T06:39:28;14.93;;;12.48;;
9461;SDS011;4769;42.660;23.262;2023-07-24T06:41:54;18.45;;;13.02;;
9461;SDS011;4769;42.660;23.262;2023-07-24T06:44:20;14.60;;;12.68;;
9461;SDS011;4769;42.660;23.262;2023-07-24T06:46:46;16.17;;;13.25;;
9461;SDS011;4769;42.660;23.262;2023-07-24T06:49:12;17.10;;;14.18;;
9461;SDS011;4769;42.660;23.262;2023-07-24T06:51:40;16.13;;;12.80;;
9461;SDS011;4769;42.660;23.262;2023-07-24T06:54:05;17.88;;;13.38;;
9461;SDS011;4769;42.660;23.262;2023-07-24T06:56:31;19.05;;;13.63;;
9461;SDS011;4769;42.660;23.262;2023-07-24T06:58:57;18.02;;;13.48;;
9461;SDS011;4769;42.660;23.262;2023-07-24T07:01:23;16.55;;;13.65;;
9461;SDS011;4769;42.660;23.262;2023-07-24T07:03:48;17.15;;;13.55;;
9461;SDS011;4769;42.660;23.262;2023-07-24T07:06:14;18.13;;;13.40;;
9461;SDS011;4769;42.660;23.262;2023-07-24T07:08:42;17.75;;;12.07;;
9461;SDS011;4769;42.660;23.262;2023-07-24T07:11:08;17.73;;;12.85;;
9461;SDS011;4769;42.660;23.262;2023-07-24T07:13:34;17.85;;;13.50;;
9461;SDS011;4769;42.660;23.262;2023-07-24T07:15:59;19.05;;;13.40;;
9461;SDS011;4769;42.660;23.262;2023-07-24T07:18:25;13.88;;;11.98;;
9461;SDS011;4769;42.660;23.262;2023-07-24T07:20:51;16.38;;;12.18;;
9461;SDS011;4769;42.660;23.262;2023-07-24T07:23:18;16.35;;;12.43;;
9461;SDS011;4769;42.660;23.262;2023-07-24T07:25:46;21.20;;;12.68;;
9461;SDS011;4769;42.660;23.262;2023-07-24T07:28:12;18.48;;;12.57;;
9461;SDS011;4769;42.660;23.262;2023-07-24T07:30:38;16.63;;;12.07;;
9461;SDS011;4769;42.660;23.262;2023-07-24T07:33:04;21.45;;;13.02;;
9461;SDS011;4769;42.660;23.262;2023-07-24T07:35:30;17.35;;;12.43;;
9461;SDS011;4769;42.660;23.262;2023-07-24T07:37:56;15.32;;;13.00;;
9461;SDS011;4769;42.660;23.262;2023-07-24T07:40:21;18.75;;;12.18;;
9461;SDS011;4769;42.660;23.262;2023-07-24T07:42:50;15.80;;;11.95;;
9461;SDS011;4769;42.660;23.262;2023-07-24T07:45:15;15.05;;;12.43;;
9461;SDS011;4769;42.660;23.262;2023-07-24T07:47:41;15.40;;;12.50;;
9461;SDS011;4769;42.660;23.262;2023-07-24T07:50:07;13.13;;;11.82;;
9461;SDS011;4769;42.660;23.262;2023-07-24T07:52:33;17.42;;;13.20;;
9461;SDS011;4769;42.660;23.262;2023-07-24T07:54:59;13.85;;;12.35;;
9461;SDS011;4769;42.660;23.262;2023-07-24T07:57:25;13.90;;;11.88;;
9461;SDS011;4769;42.660;23.262;2023-07-24T07:59:53;12.95;;;11.43;;
9461;SDS011;4769;42.660;23.262;2023-07-24T08:02:19;16.02;;;12.38;;
9461;SDS011;4769;42.660;23.262;2023-07-24T08:04:45;16.30;;;12.70;;
9461;SDS011;4769;42.660;23.262;2023-07-24T08:07:12;16.90;;;13.40;;
9461;SDS011;4769;42.660;23.262;2023-07-24T08:09:38;16.67;;;12.98;;
9461;SDS011;4769;42.660;23.262;2023-07-24T08:12:04;14.82;;;11.68;;
9461;SDS011;4769;42.660;23.262;2023-07-24T08:14:30;14.15;;;12.35;;
9461;SDS011;4769;42.660;23.262;2023-07-24T08:16:58;16.23;;;11.80;;
9461;SDS011;4769;42.660;23.262;2023-07-24T08:19:24;14.65;;;12.10;;
9461;SDS011;4769;42.660;23.262;2023-07-24T08:21:53;17.02;;;12.20;;
9461;SDS011;4769;42.660;23.262;2023-07-24T08:24:18;13.90;;;12.30;;
9461;SDS011;4769;42.660;23.262;2023-07-24T08:26:44;14.45;;;12.32;;
9461;SDS011;4769;42.660;23.262;2023-07-24T08:29:10;15.05;;;11.18;;
9461;SDS011;4769;42.660;23.262;2023-07-24T08:31:36;13.52;;;11.55;;
9461;SDS011;4769;42.660;23.262;2023-07-24T08:34:04;17.42;;;12.88;;
9461;SDS011;4769;42.660;23.262;2023-07-24T08:36:29;15.65;;;11.93;;
9461;SDS011;4769;42.660;23.262;2023-07-24T08:38:55;16.02;;;12.02;;
9461;SDS011;4769;42.660;23.262;2023-07-24T08:41:21;13.50;;;12.10;;
9461;SDS011;4769;42.660;23.262;2023-07-24T08:43:46;16.70;;;12.65;;
9461;SDS011;4769;42.660;23.262;2023-07-24T08:46:12;15.93;;;11.32;;
9461;SDS011;4769;42.660;23.262;2023-07-24T08:48:40;13.55;;;12.13;;
9461;SDS011;4769;42.660;23.262;2023-07-24T08:51:10;16.30;;;12.35;;
9461;SDS011;4769;42.660;23.262;2023-07-24T08:53:37;15.52;;;13.50;;
9461;SDS011;4769;42.660;23.262;2023-07-24T08:56:04;14.38;;;12.45;;
9461;SDS011;4769;42.660;23.262;2023-07-24T08:58:31;15.90;;;12.68;;
9461;SDS011;4769;42.660;23.262;2023-07-24T09:00:57;18.17;;;14.98;;
9461;SDS011;4769;42.660;23.262;2023-07-24T09:03:24;20.17;;;13.52;;
9461;SDS011;4769;42.660;23.262;2023-07-24T09:05:50;18.73;;;12.55;;
9461;SDS011;4769;42.660;23.262;2023-07-24T09:08:27;20.10;;;13.15;;
9461;SDS011;4769;42.660;23.262;2023-07-24T09:10:53;16.27;;;11.57;;
9461;SDS011;4769;42.660;23.262;2023-07-24T09:13:19;18.80;;;12.77;;
9461;SDS011;4769;42.660;23.262;2023-07-24T09:15:45;14.07;;;12.20;;
9461;SDS011;4769;42.660;23.262;2023-07-24T09:18:10;16.92;;;11.82;;
9461;SDS011;4769;42.660;23.262;2023-07-24T09:20:39;16.80;;;12.48;;
9461;SDS011;4769;42.660;23.262;2023-07-24T09:23:06;18.70;;;12.20;;
9461;SDS011;4769;42.660;23.262;2023-07-24T09:25:35;15.15;;;12.60;;
9461;SDS011;4769;42.660;23.262;2023-07-24T09:28:08;14.52;;;12.43;;
9461;SDS011;4769;42.660;23.262;2023-07-24T09:30:34;21.63;;;12.13;;
9461;SDS011;4769;42.660;23.262;2023-07-24T09:33:00;15.48;;;11.80;;
9461;SDS011;4769;42.660;23.262;2023-07-24T09:35:26;15.93;;;12.75;;
9461;SDS011;4769;42.660;23.262;2023-07-24T09:38:00;17.60;;;12.52;;
9461;SDS011;4769;42.660;23.262;2023-07-24T09:40:27;20.48;;;12.27;;
9461;SDS011;4769;42.660;23.262;2023-07-24T09:42:55;13.32;;;11.93;;
9461;SDS011;4769;42.660;23.262;2023-07-24T09:45:21;15.75;;;12.23;;
9461;SDS011;4769;42.660;23.262;2023-07-24T09:47:46;14.00;;;12.05;;
9461;SDS011;4769;42.660;23.262;2023-07-24T09:50:12;15.68;;;11.82;;
9461;SDS011;4769;42.660;23.262;2023-07-24T09:52:39;15.85;;;12.35;;
9461;SDS011;4769;42.660;23.262;2023-07-24T09:55:08;20.88;;;11.82;;
9461;SDS011;4769;42.660;23.262;2023-07-24T09:57:36;16.15;;;12.40;;
9461;SDS011;4769;42.660;23.262;2023-07-24T10:00:06;15.45;;;11.20;;
9461;SDS011;4769;42.660;23.262;2023-07-24T10:02:32;14.20;;;11.95;;
9461;SDS011;4769;42.660;23.262;2023-07-24T10:04:59;13.98;;;9.90;;
9461;SDS011;4769;42.660;23.262;2023-07-24T10:07:26;14.70;;;10.55;;
9461;SDS011;4769;42.660;23.262;2023-07-24T10:09:52;13.70;;;10.00;;
9461;SDS011;4769;42.660;23.262;2023-07-24T10:12:19;21.13;;;10.57;;
9461;SDS011;4769;42.660;23.262;2023-07-24T10:14:46;20.05;;;10.48;;
9461;SDS011;4769;42.660;23.262;2023-07-24T10:17:20;13.73;;;10.18;;
9461;SDS011;4769;42.660;23.262;2023-07-24T10:20:01;16.77;;;10.98;;
9461;SDS011;4769;42.660;23.262;2023-07-24T10:22:28;17.85;;;9.70;;
9461;SDS011;4769;42.660;23.262;2023-07-24T10:24:54;17.27;;;10.90;;
9461;SDS011;4769;42.660;23.262;2023-07-24T10:27:22;19.75;;;10.32;;
9461;SDS011;4769;42.660;23.262;2023-07-24T10:29:57;14.88;;;10.10;;
9461;SDS011;4769;42.660;23.262;2023-07-24T10:32:26;18.13;;;9.70;;
9461;SDS011;4769;42.660;23.262;2023-07-24T10:34:59;16.77;;;9.52;;
9461;SDS011;4769;42.660;23.262;2023-07-24T10:37:31;12.73;;;9.23;;
9461;SDS011;4769;42.660;23.262;2023-07-24T10:39:58;16.63;;;10.05;;
9461;SDS011;4769;42.660;23.262;2023-07-24T10:42:24;15.43;;;8.93;;
9461;SDS011;4769;42.660;23.262;2023-07-24T10:44:49;13.80;;;8.52;;
9461;SDS011;4769;42.660;23.262;2023-07-24T10:47:15;13.63;;;8.48;;
9461;SDS011;4769;42.660;23.262;2023-07-24T10:49:47;12.02;;;7.60;;
9461;SDS011;4769;42.660;23.262;2023-07-24T10:52:13;13.38;;;8.57;;
9461;SDS011;4769;42.660;23.262;2023-07-24T10:54:39;14.30;;;8.10;;
9461;SDS011;4769;42.660;23.262;2023-07-24T10:57:05;14.13;;;8.18;;
9461;SDS011;4769;42.660;23.262;2023-07-24T10:59:37;13.68;;;8.38;;
9461;SDS011;4769;42.660;23.262;2023-07-24T11:02:03;14.50;;;7.90;;
9461;SDS011;4769;42.660;23.262;2023-07-24T11:04:29;12.13;;;8.50;;
9461;SDS011;4769;42.660;23.262;2023-07-24T11:06:58;17.40;;;8.93;;
9461;SDS011;4769;42.660;23.262;2023-07-24T11:09:33;14.05;;;9.02;;
9461;SDS011;4769;42.660;23.262;2023-07-24T11:11:59;12.38;;;8.57;;
9461;SDS011;4769;42.660;23.262;2023-07-24T11:14:25;15.48;;;7.95;;
9461;SDS011;4769;42.660;23.262;2023-07-24T11:16:50;11.85;;;8.13;;
9461;SDS011;4769;42.660;23.262;2023-07-24T11:19:21;14.75;;;9.00;;
9461;SDS011;4769;42.660;23.262;2023-07-24T11:21:47;15.73;;;8.48;;
9461;SDS011;4769;42.660;23.262;2023-07-24T11:24:17;12.80;;;8.40;;
9461;SDS011;4769;42.660;23.262;2023-07-24T11:26:43;15.88;;;8.75;;
9461;SDS011;4769;42.660;23.262;2023-07-24T11:29:10;14.48;;;8.70;;
9461;SDS011;4769;42.660;23.262;2023-07-24T11:31:37;12.13;;;8.50;;
9461;SDS011;4769;42.660;23.262;2023-07-24T11:34:03;10.23;;;8.68;;
9461;SDS011;4769;42.660;23.262;2023-07-24T11:36:29;13.98;;;8.25;;
9461;SDS011;4769;42.660;23.262;2023-07-24T11:38:54;20.33;;;9.05;;
9461;SDS011;4769;42.660;23.262;2023-07-24T11:41:23;10.95;;;9.10;;
9461;SDS011;4769;42.660;23.262;2023-07-24T11:43:49;13.25;;;8.23;;
9461;SDS011;4769;42.660;23.262;2023-07-24T11:46:24;14.48;;;8.77;;
9461;SDS011;4769;42.660;23.262;2023-07-24T11:48:51;12.80;;;8.75;;
9461;SDS011;4769;42.660;23.262;2023-07-24T11:51:17;14.70;;;8.73;;
9461;SDS011;4769;42.660;23.262;2023-07-24T11:53:43;14.93;;;8.85;;
9461;SDS011;4769;42.660;23.262;2023-07-24T11:56:12;15.50;;;8.32;;
9461;SDS011;4769;42.660;23.262;2023-07-24T11:58:42;9.43;;;7.88;;
9461;SDS011;4769;42.660;23.262;2023-07-24T12:01:07;13.68;;;9.32;;
9461;SDS011;4769;42.660;23.262;2023-07-24T12:03:33;14.10;;;8.60;;
9461;SDS011;4769;42.660;23.262;2023-07-24T12:05:59;9.30;;;8.10;;
9461;SDS011;4769;42.660;23.262;2023-07-24T12:08:29;12.30;;;8.48;;
9461;SDS011;4769;42.660;23.262;2023-07-24T12:10:56;14.43;;;8.48;;
9461;SDS011;4769;42.660;23.262;2023-07-24T12:13:22;16.42;;;9.73;;
9461;SDS011;4769;42.660;23.262;2023-07-24T12:15:50;12.85;;;9.27;;
9461;SDS011;4769;42.660;23.262;2023-07-24T12:18:16;14.98;;;9.80;;
9461;SDS011;4769;42.660;23.262;2023-07-24T12:20:41;10.70;;;8.32;;
9461;SDS011;4769;42.660;23.262;2023-07-24T12:23:07;13.05;;;9.18;;
9461;SDS011;4769;42.660;23.262;2023-07-24T12:25:33;12.13;;;8.82;;
9461;SDS011;4769;42.660;23.262;2023-07-24T12:27:58;12.40;;;8.50;;
9461;SDS011;4769;42.660;23.262;2023-07-24T12:30:24;11.27;;;8.90;;
9461;SDS011;4769;42.660;23.262;2023-07-24T12:32:52;12.27;;;8.52;;
9461;SDS011;4769;42.660;23.262;2023-07-24T12:35:18;12.45;;;8.90;;
9461;SDS011;4769;42.660;23.262;2023-07-24T12:37:44;16.65;;;9.77;;
9461;SDS011;4769;42.660;23.262;2023-07-24T12:40:10;12.32;;;8.65;;
9461;SDS011;4769;42.660;23.262;2023-07-24T12:42:36;13.13;;;9.00;;
9461;SDS011;4769;42.660;23.262;2023-07-24T12:45:02;13.88;;;9.27;;
9461;SDS011;4769;42.660;23.262;2023-07-24T12:47:28;11.18;;;8.63;;
9461;SDS011;4769;42.660;23.262;2023-07-24T12:49:57;14.43;;;8.90;;
9461;SDS011;4769;42.660;23.262;2023-07-24T12:52:22;13.32;;;9.00;;
9461;SDS011;4769;42.660;23.262;2023-07-24T12:54:48;10.60;;;8.55;;
9461;SDS011;4769;42.660;23.262;2023-07-24T12:57:14;12.32;;;9.55;;
9461;SDS011;4769;42.660;23.262;2023-07-24T12:59:39;9.35;;;8.10;;
9461;SDS011;4769;42.660;23.262;2023-07-24T13:02:05;9.95;;;8.95;;
9461;SDS011;4769;42.660;23.262;2023-07-24T13:04:31;12.18;;;9.13;;
9461;SDS011;4769;42.660;23.262;2023-07-24T13:06:59;12.38;;;8.88;;
9461;SDS011;4769;42.660;23.262;2023-07-24T13:09:25;12.65;;;9.35;;
9461;SDS011;4769;42.660;23.262;2023-07-24T13:11:51;12.90;;;9.00;;
9461;SDS011;4769;42.660;23.262;2023-07-24T13:14:17;11.57;;;9.13;;
9461;SDS011;4769;42.660;23.262;2023-07-24T13:16:42;14.27;;;9.38;;
9461;SDS011;4769;42.660;23.262;2023-07-24T13:19:08;10.65;;;8.90;;
9461;SDS011;4769;42.660;23.262;2023-07-24T13:21:34;11.00;;;9.80;;
9461;SDS011;4769;42.660;23.262;2023-07-24T13:24:02;11.00;;;9.90;;
9461;SDS011;4769;42.660;23.262;2023-07-24T13:26:28;15.45;;;9.75;;
9461;SDS011;4769;42.660;23.262;2023-07-24T13:28:54;14.68;;;10.40;;
9461;SDS011;4769;42.660;23.262;2023-07-24T13:31:20;11.30;;;9.48;;
9461;SDS011;4769;42.660;23.262;2023-07-24T13:33:46;11.35;;;9.32;;
9461;SDS011;4769;42.660;23.262;2023-07-24T13:36:12;10.93;;;9.43;;
9461;SDS011;4769;42.660;23.262;2023-07-24T13:38:38;10.75;;;9.65;;
9461;SDS011;4769;42.660;23.262;2023-07-24T13:41:07;12.27;;;9.23;;
9461;SDS011;4769;42.660;23.262;2023-07-24T13:43:32;10.63;;;9.05;;
9461;SDS011;4769;42.660;23.262;2023-07-24T13:45:58;11.55;;;9.77;;
9461;SDS011;4769;42.660;23.262;2023-07-24T13:48:24;10.68;;;9.52;;
9461;SDS011;4769;42.660;23.262;2023-07-24T13:50:52;16.73;;;10.52;;
9461;SDS011;4769;42.660;23.262;2023-07-24T13:53:17;17.25;;;9.68;;
9461;SDS011;4769;42.660;23.262;2023-07-24T13:55:43;14.27;;;9.60;;
9461;SDS011;4769;42.660;23.262;2023-07-24T13:58:11;12.65;;;9.18;;
9461;SDS011;4769;42.660;23.262;2023-07-24T14:00:37;11.65;;;9.65;;
9461;SDS011;4769;42.660;23.262;2023-07-24T14:03:02;13.77;;;9.88;;
9461;SDS011;4769;42.660;23.262;2023-07-24T14:05:28;10.75;;;9.70;;
9461;SDS011;4769;42.660;23.262;2023-07-24T14:07:54;11.10;;;9.80;;
9461;SDS011;4769;42.660;23.262;2023-07-24T14:10:19;13.45;;;10.52;;
9461;SDS011;4769;42.660;23.262;2023-07-24T14:12:45;10.52;;;9.43;;
9461;SDS011;4769;42.660;23.262;2023-07-24T14:15:13;13.27;;;10.27;;
9461;SDS011;4769;42.660;23.262;2023-07-24T14:17:39;13.10;;;9.77;;
9461;SDS011;4769;42.660;23.262;2023-07-24T14:20:06;11.05;;;9.95;;
9461;SDS011;4769;42.660;23.262;2023-07-24T14:22:32;12.65;;;10.35;;
9461;SDS011;4769;42.660;23.262;2023-07-24T14:24:58;12.80;;;10.15;;
9461;SDS011;4769;42.660;23.262;2023-07-24T14:27:24;14.93;;;10.48;;
9461;SDS011;4769;42.660;23.262;2023-07-24T14:29:49;11.60;;;10.18;;
9461;SDS011;4769;42.660;23.262;2023-07-24T14:32:18;11.30;;;10.10;;
9461;SDS011;4769;42.660;23.262;2023-07-24T14:34:43;11.30;;;10.18;;